KRWV

Caldwell Municipal Airport

Caldwell, Texas, USA
METAR KRWV 141255Z AUTO 31018G24KT 10SM OVC012 06/04 A2992 RMK AO2 LTG DSNT NE T00630044
Observed Flight Rules
Dec-14 @ 12:55 UTC (7 minutes ago) Marginal Visual Flight Rules
Wind Visibility Clouds
310° at 18 knots
 Gusting to 24 knots
10 miles
  • Overcast at 1,200' AGL
Temperatures Readings
Current 6°C / 43°F
Dewpoint 4°C / 39°F
Humidity 87%
Altimeter 29.92" Hg
Pressure 1013 hPa
Elevation 119
METAR KRWV 141255Z AUTO 31018G24KT 10SM OVC012 06/04 A2992 RMK AO2 LTG DSNT NE T00630044
Observed Flight Rules
Dec-14 @ 12:55 UTC
(7 minutes ago)
MVFR
Wind Visibility
310° at 18 knots
 Gusting to 24 knots
10 miles
Clouds
  • Overcast at 1,200' AGL
Temperature Dewpoint
6°C / 43°F 4°C / 39°F
Humidity Altimeter Pressure
87% 29.92" Hg 1013 hPa